createdAt,value
2023-05-01T00:04:33.351Z,4
2023-05-01T00:10:25.743Z,3.6
2023-05-01T00:16:17.328Z,5
2023-05-01T00:22:08.865Z,4.7
2023-05-01T00:28:00.288Z,3.9
2023-05-01T00:33:51.937Z,4.8
2023-05-01T00:39:43.987Z,4.6
2023-05-01T00:45:39.001Z,6
2023-05-01T00:51:30.777Z,5.2
2023-05-01T00:57:22.390Z,4
2023-05-01T01:03:14.155Z,7.2
2023-05-01T01:09:05.808Z,4.5
2023-05-01T01:14:57.640Z,4
2023-05-01T01:20:51.691Z,5.2
2023-05-01T01:26:43.535Z,7
2023-05-01T01:32:38.558Z,4.1
2023-05-01T01:38:31.407Z,6.9
2023-05-01T01:44:23.012Z,5.4
2023-05-01T01:50:13.835Z,6
2023-05-01T01:56:08.048Z,5.2
2023-05-01T02:02:00.517Z,7.5
2023-05-01T02:07:53.812Z,5.8
2023-05-01T02:13:48.031Z,6.5
2023-05-01T02:19:40.759Z,6.5
2023-05-01T02:25:35.691Z,7.1
2023-05-01T02:31:27.178Z,5
2023-05-01T02:37:19.793Z,5
2023-05-01T02:43:12.174Z,7.5
2023-05-01T02:49:04.055Z,6
2023-05-01T02:54:59.507Z,6.7
2023-05-01T03:00:51.151Z,5.4
2023-05-01T03:06:43.291Z,4.8
2023-05-01T03:12:35.067Z,5.6
2023-05-01T03:18:27.076Z,7.5
2023-05-01T03:24:18.291Z,7.3
2023-05-01T03:30:10.455Z,7.2
2023-05-01T03:36:04.570Z,6.1
2023-05-01T03:41:56.384Z,6.8
2023-05-01T03:47:50.416Z,7
2023-05-01T03:53:43.514Z,7.1
2023-05-01T03:59:35.212Z,8.1
2023-05-01T04:05:26.692Z,5.1
2023-05-01T04:11:18.231Z,6
2023-05-01T04:17:09.897Z,6.5
2023-05-01T04:23:01.919Z,5.9
2023-05-01T04:28:53.873Z,6.3
2023-05-01T04:34:44.871Z,7.5
2023-05-01T04:40:38.450Z,6.2
2023-05-01T04:46:29.960Z,4.4
2023-05-01T04:52:22.068Z,8.6
2023-05-01T04:58:14.057Z,6.3
2023-05-01T05:04:07.098Z,4.8
2023-05-01T05:09:59.506Z,4.9
2023-05-01T05:15:51.244Z,5.2
2023-05-01T05:21:43.620Z,6.4
2023-05-01T05:27:35.631Z,5.8
2023-05-01T05:33:35.585Z,6
2023-05-01T05:39:26.848Z,4
2023-05-01T05:45:19.236Z,7.4
2023-05-01T05:51:09.952Z,4.9
2023-05-01T05:57:02.881Z,6.6
2023-05-01T06:02:55.465Z,4.9
2023-05-01T06:08:48.207Z,5.9
2023-05-01T06:14:40.621Z,6.2
2023-05-01T06:20:32.781Z,6
2023-05-01T06:26:25.383Z,5.7
2023-05-01T06:32:17.525Z,6.6
2023-05-01T06:38:10.347Z,5.6
2023-05-01T06:44:03.065Z,6
2023-05-01T06:49:55.116Z,6.5
2023-05-01T06:55:47.754Z,8.7
2023-05-01T07:01:41.172Z,6
2023-05-01T07:07:33.066Z,6.5
2023-05-01T07:13:25.338Z,5
2023-05-01T07:19:17.631Z,8.2
2023-05-01T07:25:09.466Z,8
2023-05-01T07:31:02.569Z,5.5
2023-05-01T07:36:55.369Z,6.5
2023-05-01T07:42:47.941Z,7.4
2023-05-01T07:48:44.261Z,5.7
2023-05-01T07:54:36.763Z,5.3
2023-05-01T08:00:29.919Z,6.9
2023-05-01T08:06:21.986Z,5.6
2023-05-01T08:12:13.554Z,5.8
2023-05-01T08:18:06.195Z,5.9
2023-05-01T08:23:58.096Z,6.1
2023-05-01T08:29:49.969Z,5.2
2023-05-01T08:35:42.797Z,6.3
2023-05-01T08:41:35.604Z,5.1
2023-05-01T08:47:27.335Z,4.5
2023-05-01T08:53:19.569Z,7.3
2023-05-01T08:59:12.692Z,5.3
2023-05-01T09:05:05.082Z,7.3
2023-05-01T09:12:08.337Z,7.2
2023-05-01T09:18:03.160Z,6
2023-05-01T09:24:05.165Z,8.4
2023-05-01T09:29:59.359Z,6.3
2023-05-01T09:35:53.078Z,6.5
2023-05-01T09:41:45.374Z,6.8
2023-05-01T09:47:38.700Z,6.2
2023-05-01T09:53:31.968Z,5.6
2023-05-01T09:59:24.067Z,5.9
2023-05-01T10:05:16.679Z,5.9
2023-05-01T10:11:09.569Z,5.7
2023-05-01T10:17:03.385Z,5.3
2023-05-01T10:22:56.115Z,6.7
2023-05-01T10:28:48.662Z,4.3
2023-05-01T10:34:41.080Z,5.6
2023-05-01T10:40:34.265Z,6.6
2023-05-01T10:46:26.523Z,5
2023-05-01T10:52:19.568Z,4.3
2023-05-01T10:58:12.001Z,4.6
2023-05-01T11:04:05.330Z,5.2
2023-05-01T11:09:57.819Z,5.5
2023-05-01T11:15:50.246Z,10.7
2023-05-01T11:21:42.042Z,7.5
2023-05-01T11:27:33.777Z,5.6
2023-05-01T11:33:25.694Z,4.7
2023-05-01T11:39:20.311Z,4.8
2023-05-01T11:45:12.807Z,5.6
2023-05-01T11:51:04.337Z,5.4
2023-05-01T11:56:57.353Z,7.4
2023-05-01T12:02:49.382Z,4.4
2023-05-01T12:08:41.370Z,5.9
2023-05-01T12:14:33.459Z,5.4
2023-05-01T12:20:25.756Z,5.4
2023-05-01T12:26:18.419Z,6.9
2023-05-01T12:32:11.509Z,5.3
2023-05-01T12:38:03.845Z,6.7
2023-05-01T12:43:55.934Z,8.3
2023-05-01T12:49:45.741Z,6.6
2023-05-01T12:56:43.010Z,6.2
2023-05-01T13:02:31.943Z,6
2023-05-01T13:08:22.635Z,5.4
2023-05-01T13:14:19.952Z,4.7
2023-05-01T13:20:11.382Z,5.4
2023-05-01T13:27:11.392Z,5.3
2023-05-01T13:33:02.372Z,4.7
2023-05-01T13:38:52.981Z,3.9
2023-05-01T13:44:44.371Z,3.3
2023-05-01T13:50:35.712Z,4.5
2023-05-01T13:56:27.447Z,3.5
2023-05-01T14:02:19.234Z,4.3
2023-05-01T14:08:10.581Z,3.9
2023-05-01T14:14:04.179Z,3.1
2023-05-01T14:19:57.894Z,3.6
2023-05-01T14:25:49.845Z,4
2023-05-01T14:31:41.904Z,3.7
2023-05-01T14:37:32.784Z,3.6
2023-05-01T14:43:25.621Z,4.4
2023-05-01T14:49:16.839Z,3.9
2023-05-01T14:55:07.653Z,4.3
2023-05-01T15:00:59.446Z,5.4
2023-05-01T15:06:50.846Z,3.9
2023-05-01T15:12:41.931Z,3.8
2023-05-01T15:18:33.180Z,4.4
2023-05-01T15:24:26.227Z,3.4
2023-05-01T15:30:17.596Z,4.8
2023-05-01T15:36:09.362Z,4.5
2023-05-01T15:41:59.738Z,3.9
2023-05-01T15:47:51.116Z,4.1
2023-05-01T15:53:42.617Z,5.2
2023-05-01T15:59:34.308Z,4.6
2023-05-01T16:05:26.446Z,5.5
2023-05-01T16:11:18.446Z,2.8
2023-05-01T16:17:09.538Z,4
2023-05-01T16:23:03.234Z,4
2023-05-01T16:28:56.846Z,4.6
2023-05-01T16:34:53.919Z,3.1
2023-05-01T16:40:46.090Z,4.4
2023-05-01T16:46:40.585Z,4.9
2023-05-01T16:52:32.895Z,3.3
2023-05-01T16:58:26.583Z,3.9
2023-05-01T17:04:27.126Z,4.8
2023-05-01T17:10:18.884Z,4.8
2023-05-01T17:16:10.208Z,4.5
2023-05-01T17:22:01.503Z,5
2023-05-01T17:27:51.882Z,4.9
2023-05-01T17:33:43.136Z,4.9
2023-05-01T17:39:35.073Z,6.4
2023-05-01T17:45:26.240Z,7.9
2023-05-01T17:51:18.264Z,7.4
2023-05-01T17:57:09.969Z,7.9
2023-05-01T18:03:04.582Z,11.3
2023-05-01T18:08:55.998Z,9.3
2023-05-01T18:14:47.660Z,10.4
2023-05-01T18:20:39.156Z,9.8
2023-05-01T18:26:32.020Z,11.1
2023-05-01T18:32:49.929Z,11.4
2023-05-01T18:45:44.498Z,10.8
2023-05-01T18:51:31.849Z,12.7
2023-05-01T18:58:31.614Z,11.6
2023-05-01T19:04:23.850Z,13.6
2023-05-01T19:10:15.222Z,14.7
2023-05-01T19:16:07.093Z,13.1
2023-05-01T19:22:00.451Z,14.4
2023-05-01T19:27:51.240Z,12.5
2023-05-01T19:33:42.435Z,14
2023-05-01T19:39:34.090Z,13.4
2023-05-01T19:45:26.419Z,13.2
2023-05-01T19:52:29.507Z,14
2023-05-01T19:59:28.604Z,15.4
2023-05-01T20:06:28.116Z,12.7
2023-05-01T20:12:18.577Z,13.8
2023-05-01T20:19:19.487Z,16.2
2023-05-01T20:26:22.803Z,13.9
2023-05-01T20:39:07.056Z,15
2023-05-01T20:46:06.418Z,14
2023-05-01T20:51:56.716Z,15.2
2023-05-01T20:57:47.631Z,14.3
2023-05-01T21:03:41.866Z,15.7
2023-05-01T21:09:32.885Z,17.1
2023-05-01T21:15:25.084Z,14.2
2023-05-01T21:21:15.511Z,18.2
2023-05-01T21:27:06.410Z,16.2
2023-05-01T21:32:59.072Z,16.4
2023-05-01T21:38:50.431Z,16.5
2023-05-01T21:44:42.393Z,16.6
2023-05-01T21:50:34.282Z,18.5
2023-05-01T21:56:26.053Z,17.4
2023-05-01T22:02:18.290Z,18.6
2023-05-01T22:08:10.006Z,19.3
2023-05-01T22:14:04.842Z,19.3
2023-05-01T22:19:55.884Z,21.2
2023-05-01T22:25:47.158Z,17.3
2023-05-01T22:31:40.578Z,19.6
2023-05-01T22:37:31.078Z,26.1
2023-05-01T22:43:25.666Z,19
2023-05-01T22:49:19.163Z,17.5
2023-05-01T22:55:08.890Z,17.1
2023-05-01T23:01:00.555Z,18.4
2023-05-01T23:08:00.930Z,17.8
2023-05-01T23:13:51.055Z,19.7
2023-05-01T23:19:42.534Z,22.8
2023-05-01T23:25:36.539Z,22.3
2023-05-01T23:31:26.659Z,27.1
2023-05-01T23:37:18.395Z,30.7
2023-05-01T23:43:09.653Z,37.2
2023-05-01T23:49:01.881Z,41.1
2023-05-01T23:54:53.532Z,47.9
